sensor_id;sensor_type;location;lat;lon;timestamp;temperature;humidity
11532;DHT22;5822;51.000;5.874;2022-09-09T08:11:24;18.10;99.90
11532;DHT22;5822;51.000;5.874;2022-09-09T08:13:51;18.10;99.90
11532;DHT22;5822;51.000;5.874;2022-09-09T08:16:19;18.10;99.90
11532;DHT22;5822;51.000;5.874;2022-09-09T08:18:49;18.10;99.90
11532;DHT22;5822;51.000;5.874;2022-09-09T08:21:18;18.20;99.90
11532;DHT22;5822;51.000;5.874;2022-09-09T08:23:45;18.10;99.90
11532;DHT22;5822;51.000;5.874;2022-09-09T08:26:16;18.10;99.90
11532;DHT22;5822;51.000;5.874;2022-09-09T08:28:43;18.20;99.90
11532;DHT22;5822;51.000;5.874;2022-09-09T08:31:16;18.10;99.90
11532;DHT22;5822;51.000;5.874;2022-09-09T08:33:45;18.10;99.90
11532;DHT22;5822;51.000;5.874;2022-09-09T08:36:13;18.20;99.90
11532;DHT22;5822;51.000;5.874;2022-09-09T08:38:41;18.10;99.90
11532;DHT22;5822;51.000;5.874;2022-09-09T08:41:23;18.10;99.90
11532;DHT22;5822;51.000;5.874;2022-09-09T08:44:06;18.10;99.90
11532;DHT22;5822;51.000;5.874;2022-09-09T08:46:42;18.10;99.90
11532;DHT22;5822;51.000;5.874;2022-09-09T08:51:41;18.30;99.90
11532;DHT22;5822;51.000;5.874;2022-09-09T08:54:09;18.40;99.90
11532;DHT22;5822;51.000;5.874;2022-09-09T08:56:35;18.40;99.90
11532;DHT22;5822;51.000;5.874;2022-09-09T08:59:02;18.40;99.90
11532;DHT22;5822;51.000;5.874;2022-09-09T09:01:59;18.50;99.90
11532;DHT22;5822;51.000;5.874;2022-09-09T09:04:41;18.60;99.90
11532;DHT22;5822;51.000;5.874;2022-09-09T09:10:45;18.70;99.90
11532;DHT22;5822;51.000;5.874;2022-09-09T09:13:26;18.50;99.90
11532;DHT22;5822;51.000;5.874;2022-09-09T09:16:10;18.40;99.90
11532;DHT22;5822;51.000;5.874;2022-09-09T09:18:39;18.40;99.90
11532;DHT22;5822;51.000;5.874;2022-09-09T09:24:05;18.60;99.90
11532;DHT22;5822;51.000;5.874;2022-09-09T09:26:34;18.50;99.90
11532;DHT22;5822;51.000;5.874;2022-09-09T09:29:15;18.60;99.90
11532;DHT22;5822;51.000;5.874;2022-09-09T09:31:52;18.70;99.90
11532;DHT22;5822;51.000;5.874;2022-09-09T09:34:20;18.70;99.90
11532;DHT22;5822;51.000;5.874;2022-09-09T09:36:58;18.80;99.90
11532;DHT22;5822;51.000;5.874;2022-09-09T09:39:31;18.80;99.90
11532;DHT22;5822;51.000;5.874;2022-09-09T09:42:10;18.90;99.90
11532;DHT22;5822;51.000;5.874;2022-09-09T09:44:39;18.90;99.90
11532;DHT22;5822;51.000;5.874;2022-09-09T09:47:20;18.70;99.90
11532;DHT22;5822;51.000;5.874;2022-09-09T09:49:53;18.70;99.90
11532;DHT22;5822;51.000;5.874;2022-09-09T09:52:23;18.70;99.90
11532;DHT22;5822;51.000;5.874;2022-09-09T09:54:49;18.70;99.90
11532;DHT22;5822;51.000;5.874;2022-09-09T09:57:16;18.60;99.90
11532;DHT22;5822;51.000;5.874;2022-09-09T09:59:43;18.60;99.90
11532;DHT22;5822;51.000;5.874;2022-09-09T10:02:24;18.60;99.90
11532;DHT22;5822;51.000;5.874;2022-09-09T10:05:16;18.70;99.90
11532;DHT22;5822;51.000;5.874;2022-09-09T10:07:43;18.70;99.90
11532;DHT22;5822;51.000;5.874;2022-09-09T10:10:20;18.70;99.90
11532;DHT22;5822;51.000;5.874;2022-09-09T10:15:56;18.80;99.90
11532;DHT22;5822;51.000;5.874;2022-09-09T10:35:05;19.20;99.90
11532;DHT22;5822;51.000;5.874;2022-09-09T10:40:23;19.30;99.90
11532;DHT22;5822;51.000;5.874;2022-09-09T10:42:58;19.20;99.90
11532;DHT22;5822;51.000;5.874;2022-09-09T10:45:49;19.20;99.90
11532;DHT22;5822;51.000;5.874;2022-09-09T10:54:20;19.20;99.90
11532;DHT22;5822;51.000;5.874;2022-09-09T10:56:54;19.20;99.90
11532;DHT22;5822;51.000;5.874;2022-09-09T10:59:25;19.20;99.90
11532;DHT22;5822;51.000;5.874;2022-09-09T11:01:59;19.20;99.90
11532;DHT22;5822;51.000;5.874;2022-09-09T11:04:45;19.20;99.90
11532;DHT22;5822;51.000;5.874;2022-09-09T11:07:16;19.20;99.90
11532;DHT22;5822;51.000;5.874;2022-09-09T11:09:47;19.10;99.90
11532;DHT22;5822;51.000;5.874;2022-09-09T11:12:19;19.10;99.90
11532;DHT22;5822;51.000;5.874;2022-09-09T11:14:47;19.00;99.90
11532;DHT22;5822;51.000;5.874;2022-09-09T11:17:33;19.10;99.90
11532;DHT22;5822;51.000;5.874;2022-09-09T11:20:02;19.10;99.90
11532;DHT22;5822;51.000;5.874;2022-09-09T11:25:09;19.00;99.90
11532;DHT22;5822;51.000;5.874;2022-09-09T11:27:55;19.00;99.90
11532;DHT22;5822;51.000;5.874;2022-09-09T11:40:40;19.30;99.90
11532;DHT22;5822;51.000;5.874;2022-09-09T11:43:19;19.20;99.90
11532;DHT22;5822;51.000;5.874;2022-09-09T11:45:53;19.20;99.90
11532;DHT22;5822;51.000;5.874;2022-09-09T11:48:31;19.20;99.90
11532;DHT22;5822;51.000;5.874;2022-09-09T11:51:09;19.10;99.90
11532;DHT22;5822;51.000;5.874;2022-09-09T11:53:47;19.10;99.90
11532;DHT22;5822;51.000;5.874;2022-09-09T11:56:24;19.10;99.90
11532;DHT22;5822;51.000;5.874;2022-09-09T11:58:57;19.30;99.90
11532;DHT22;5822;51.000;5.874;2022-09-09T12:01:34;19.20;99.90
11532;DHT22;5822;51.000;5.874;2022-09-09T12:06:53;19.20;99.90
11532;DHT22;5822;51.000;5.874;2022-09-09T12:11:52;19.40;99.90
11532;DHT22;5822;51.000;5.874;2022-09-09T12:14:38;19.30;99.90
11532;DHT22;5822;51.000;5.874;2022-09-09T12:19:42;19.40;99.90
11532;DHT22;5822;51.000;5.874;2022-09-09T12:27:35;19.60;99.90
11532;DHT22;5822;51.000;5.874;2022-09-09T12:30:09;19.60;99.90
11532;DHT22;5822;51.000;5.874;2022-09-09T12:32:36;19.60;99.90
11532;DHT22;5822;51.000;5.874;2022-09-09T12:35:19;19.60;99.90
11532;DHT22;5822;51.000;5.874;2022-09-09T12:37:58;19.60;99.90
11532;DHT22;5822;51.000;5.874;2022-09-09T12:40:29;19.50;99.90
11532;DHT22;5822;51.000;5.874;2022-09-09T12:42:55;19.60;99.90
11532;DHT22;5822;51.000;5.874;2022-09-09T12:45:23;19.50;99.90
11532;DHT22;5822;51.000;5.874;2022-09-09T12:48:03;19.40;99.90
11532;DHT22;5822;51.000;5.874;2022-09-09T12:50:33;19.40;99.90
11532;DHT22;5822;51.000;5.874;2022-09-09T12:53:12;19.40;99.90
11532;DHT22;5822;51.000;5.874;2022-09-09T12:55:49;19.50;99.90
11532;DHT22;5822;51.000;5.874;2022-09-09T12:58:17;19.50;99.90
11532;DHT22;5822;51.000;5.874;2022-09-09T13:00:50;19.50;99.90
11532;DHT22;5822;51.000;5.874;2022-09-09T13:03:19;19.50;99.90
11532;DHT22;5822;51.000;5.874;2022-09-09T13:05:49;19.50;99.90
11532;DHT22;5822;51.000;5.874;2022-09-09T13:08:16;19.40;99.90
11532;DHT22;5822;51.000;5.874;2022-09-09T13:10:58;19.00;99.90
11532;DHT22;5822;51.000;5.874;2022-09-09T13:13:38;18.90;99.90
11532;DHT22;5822;51.000;5.874;2022-09-09T13:16:05;18.50;99.90
11532;DHT22;5822;51.000;5.874;2022-09-09T13:18:35;18.20;99.90
11532;DHT22;5822;51.000;5.874;2022-09-09T13:21:01;18.00;99.90
11532;DHT22;5822;51.000;5.874;2022-09-09T13:23:33;18.00;99.90
11532;DHT22;5822;51.000;5.874;2022-09-09T13:26:03;17.90;99.90
11532;DHT22;5822;51.000;5.874;2022-09-09T13:28:30;17.90;99.90
11532;DHT22;5822;51.000;5.874;2022-09-09T13:31:04;18.10;99.90
11532;DHT22;5822;51.000;5.874;2022-09-09T13:33:36;18.00;99.90
11532;DHT22;5822;51.000;5.874;2022-09-09T13:36:07;17.90;99.90
11532;DHT22;5822;51.000;5.874;2022-09-09T13:38:57;17.80;99.90
11532;DHT22;5822;51.000;5.874;2022-09-09T13:41:35;17.90;99.90
11532;DHT22;5822;51.000;5.874;2022-09-09T13:44:05;17.90;99.90
11532;DHT22;5822;51.000;5.874;2022-09-09T13:49:22;18.20;99.90
11532;DHT22;5822;51.000;5.874;2022-09-09T13:51:50;18.40;99.90
11532;DHT22;5822;51.000;5.874;2022-09-09T13:54:19;18.50;99.90
11532;DHT22;5822;51.000;5.874;2022-09-09T13:56:46;18.60;99.90
11532;DHT22;5822;51.000;5.874;2022-09-09T13:59:17;18.80;99.90
11532;DHT22;5822;51.000;5.874;2022-09-09T14:01:45;19.00;99.90
11532;DHT22;5822;51.000;5.874;2022-09-09T14:04:11;19.20;99.90
11532;DHT22;5822;51.000;5.874;2022-09-09T14:06:38;19.30;99.90
11532;DHT22;5822;51.000;5.874;2022-09-09T14:09:06;19.50;99.90
11532;DHT22;5822;51.000;5.874;2022-09-09T14:11:32;19.60;99.90
11532;DHT22;5822;51.000;5.874;2022-09-09T14:13:57;19.60;99.90
11532;DHT22;5822;51.000;5.874;2022-09-09T14:16:23;19.60;99.90
11532;DHT22;5822;51.000;5.874;2022-09-09T14:18:49;19.70;99.90
11532;DHT22;5822;51.000;5.874;2022-09-09T14:21:15;19.70;99.90
11532;DHT22;5822;51.000;5.874;2022-09-09T14:23:41;19.80;99.90
11532;DHT22;5822;51.000;5.874;2022-09-09T14:26:08;19.80;99.90
11532;DHT22;5822;51.000;5.874;2022-09-09T14:28:35;19.80;99.90
11532;DHT22;5822;51.000;5.874;2022-09-09T14:31:02;19.90;99.90
11532;DHT22;5822;51.000;5.874;2022-09-09T14:33:29;19.90;99.90
11532;DHT22;5822;51.000;5.874;2022-09-09T14:36:02;20.00;99.90
11532;DHT22;5822;51.000;5.874;2022-09-09T14:38:33;20.00;99.90
11532;DHT22;5822;51.000;5.874;2022-09-09T14:41:00;20.00;99.90
11532;DHT22;5822;51.000;5.874;2022-09-09T14:43:28;20.20;99.90
11532;DHT22;5822;51.000;5.874;2022-09-09T14:45:55;20.10;99.90
11532;DHT22;5822;51.000;5.874;2022-09-09T14:48:21;20.10;99.90
11532;DHT22;5822;51.000;5.874;2022-09-09T14:50:46;20.10;99.90
11532;DHT22;5822;51.000;5.874;2022-09-09T14:53:12;20.10;99.90
11532;DHT22;5822;51.000;5.874;2022-09-09T14:55:38;20.10;99.90
11532;DHT22;5822;51.000;5.874;2022-09-09T14:58:04;20.10;99.90
11532;DHT22;5822;51.000;5.874;2022-09-09T15:00:31;20.10;99.90
11532;DHT22;5822;51.000;5.874;2022-09-09T15:02:56;20.20;99.90
11532;DHT22;5822;51.000;5.874;2022-09-09T15:05:22;20.10;99.90
11532;DHT22;5822;51.000;5.874;2022-09-09T15:07:49;20.10;99.90
11532;DHT22;5822;51.000;5.874;2022-09-09T15:10:15;20.10;99.90
11532;DHT22;5822;51.000;5.874;2022-09-09T15:12:44;20.10;99.90
11532;DHT22;5822;51.000;5.874;2022-09-09T15:15:10;20.00;99.90
11532;DHT22;5822;51.000;5.874;2022-09-09T15:17:36;20.10;99.90
11532;DHT22;5822;51.000;5.874;2022-09-09T15:20:05;20.00;99.90
11532;DHT22;5822;51.000;5.874;2022-09-09T15:22:31;19.90;99.90
11532;DHT22;5822;51.000;5.874;2022-09-09T15:24:57;20.00;99.90
11532;DHT22;5822;51.000;5.874;2022-09-09T15:27:22;20.00;99.90
11532;DHT22;5822;51.000;5.874;2022-09-09T15:29:49;20.00;99.90
11532;DHT22;5822;51.000;5.874;2022-09-09T15:32:16;20.00;99.90
11532;DHT22;5822;51.000;5.874;2022-09-09T15:34:42;20.00;99.90
11532;DHT22;5822;51.000;5.874;2022-09-09T15:37:10;19.90;99.90
11532;DHT22;5822;51.000;5.874;2022-09-09T15:39:38;19.80;99.90
11532;DHT22;5822;51.000;5.874;2022-09-09T15:42:04;19.80;99.90
11532;DHT22;5822;51.000;5.874;2022-09-09T15:44:30;19.90;99.90
11532;DHT22;5822;51.000;5.874;2022-09-09T15:47:03;19.90;99.90
11532;DHT22;5822;51.000;5.874;2022-09-09T15:49:28;19.90;99.90
11532;DHT22;5822;51.000;5.874;2022-09-09T15:52:03;19.90;99.90
11532;DHT22;5822;51.000;5.874;2022-09-09T15:54:32;19.90;99.90
11532;DHT22;5822;51.000;5.874;2022-09-09T15:57:00;19.80;99.90
11532;DHT22;5822;51.000;5.874;2022-09-09T15:59:27;19.80;99.90
11532;DHT22;5822;51.000;5.874;2022-09-09T16:01:54;19.70;99.90
11532;DHT22;5822;51.000;5.874;2022-09-09T16:04:21;19.80;99.90
11532;DHT22;5822;51.000;5.874;2022-09-09T16:07:01;19.70;99.90
11532;DHT22;5822;51.000;5.874;2022-09-09T16:09:29;19.70;99.90
11532;DHT22;5822;51.000;5.874;2022-09-09T16:12:02;19.70;99.90
11532;DHT22;5822;51.000;5.874;2022-09-09T16:14:31;19.60;99.90
11532;DHT22;5822;51.000;5.874;2022-09-09T16:16:59;19.60;99.90
11532;DHT22;5822;51.000;5.874;2022-09-09T16:19:25;19.60;99.90
11532;DHT22;5822;51.000;5.874;2022-09-09T16:21:51;19.70;99.90
11532;DHT22;5822;51.000;5.874;2022-09-09T16:24:18;19.60;99.90
11532;DHT22;5822;51.000;5.874;2022-09-09T16:26:49;19.70;99.90
11532;DHT22;5822;51.000;5.874;2022-09-09T16:29:16;19.70;99.90
11532;DHT22;5822;51.000;5.874;2022-09-09T16:31:43;19.60;99.90
11532;DHT22;5822;51.000;5.874;2022-09-09T16:34:10;19.60;99.90
11532;DHT22;5822;51.000;5.874;2022-09-09T16:36:39;19.60;99.90
11532;DHT22;5822;51.000;5.874;2022-09-09T16:39:07;19.60;99.90
11532;DHT22;5822;51.000;5.874;2022-09-09T16:41:35;19.60;99.90
11532;DHT22;5822;51.000;5.874;2022-09-09T16:44:05;19.60;99.90
11532;DHT22;5822;51.000;5.874;2022-09-09T16:46:34;19.50;99.90
11532;DHT22;5822;51.000;5.874;2022-09-09T16:49:02;19.40;99.90
11532;DHT22;5822;51.000;5.874;2022-09-09T16:51:33;19.40;99.90
11532;DHT22;5822;51.000;5.874;2022-09-09T16:54:01;19.40;99.90
11532;DHT22;5822;51.000;5.874;2022-09-09T16:56:30;19.40;99.90
11532;DHT22;5822;51.000;5.874;2022-09-09T16:58:59;19.40;99.90
11532;DHT22;5822;51.000;5.874;2022-09-09T17:01:27;19.40;99.90
11532;DHT22;5822;51.000;5.874;2022-09-09T17:03:56;19.40;99.90
11532;DHT22;5822;51.000;5.874;2022-09-09T17:06:22;19.40;99.90
11532;DHT22;5822;51.000;5.874;2022-09-09T17:08:54;19.20;99.90
11532;DHT22;5822;51.000;5.874;2022-09-09T17:11:20;19.20;99.90
11532;DHT22;5822;51.000;5.874;2022-09-09T17:13:47;19.20;99.90
11532;DHT22;5822;51.000;5.874;2022-09-09T17:16:14;19.20;99.90
11532;DHT22;5822;51.000;5.874;2022-09-09T17:18:41;19.10;99.90
11532;DHT22;5822;51.000;5.874;2022-09-09T17:21:12;19.20;99.90
11532;DHT22;5822;51.000;5.874;2022-09-09T17:23:39;19.10;99.90
11532;DHT22;5822;51.000;5.874;2022-09-09T17:26:07;19.10;99.90
11532;DHT22;5822;51.000;5.874;2022-09-09T17:28:34;19.10;99.90
11532;DHT22;5822;51.000;5.874;2022-09-09T17:31:01;19.10;99.90
11532;DHT22;5822;51.000;5.874;2022-09-09T17:33:28;19.00;99.90
11532;DHT22;5822;51.000;5.874;2022-09-09T17:36:05;19.10;99.90
11532;DHT22;5822;51.000;5.874;2022-09-09T17:38:32;19.20;99.90
11532;DHT22;5822;51.000;5.874;2022-09-09T17:41:23;19.20;99.90
11532;DHT22;5822;51.000;5.874;2022-09-09T17:43:50;19.10;99.90
11532;DHT22;5822;51.000;5.874;2022-09-09T17:46:26;19.10;99.90
11532;DHT22;5822;51.000;5.874;2022-09-09T17:49:01;19.10;99.90
11532;DHT22;5822;51.000;5.874;2022-09-09T17:51:30;19.00;99.90
11532;DHT22;5822;51.000;5.874;2022-09-09T17:53:59;19.10;99.90
11532;DHT22;5822;51.000;5.874;2022-09-09T17:56:26;19.10;99.90
11532;DHT22;5822;51.000;5.874;2022-09-09T17:58:53;19.00;99.90
11532;DHT22;5822;51.000;5.874;2022-09-09T18:01:21;19.00;99.90
11532;DHT22;5822;51.000;5.874;2022-09-09T18:03:48;18.90;99.90
11532;DHT22;5822;51.000;5.874;2022-09-09T18:06:17;18.80;99.90
11532;DHT22;5822;51.000;5.874;2022-09-09T18:08:51;18.80;99.90
11532;DHT22;5822;51.000;5.874;2022-09-09T18:11:19;18.80;99.90
11532;DHT22;5822;51.000;5.874;2022-09-09T18:13:52;18.70;99.90
11532;DHT22;5822;51.000;5.874;2022-09-09T18:16:19;18.90;99.90
11532;DHT22;5822;51.000;5.874;2022-09-09T18:18:47;18.80;99.90
11532;DHT22;5822;51.000;5.874;2022-09-09T18:21:15;18.80;99.90
11532;DHT22;5822;51.000;5.874;2022-09-09T18:23:43;18.90;99.90
11532;DHT22;5822;51.000;5.874;2022-09-09T18:26:23;18.90;99.90
11532;DHT22;5822;51.000;5.874;2022-09-09T18:28:51;18.70;99.90
11532;DHT22;5822;51.000;5.874;2022-09-09T18:31:19;18.80;99.90
11532;DHT22;5822;51.000;5.874;2022-09-09T18:33:46;18.70;99.90
11532;DHT22;5822;51.000;5.874;2022-09-09T18:36:19;18.70;99.90
11532;DHT22;5822;51.000;5.874;2022-09-09T18:38:45;18.60;99.90
11532;DHT22;5822;51.000;5.874;2022-09-09T18:41:20;18.70;99.90
11532;DHT22;5822;51.000;5.874;2022-09-09T18:43:48;18.70;99.90
11532;DHT22;5822;51.000;5.874;2022-09-09T18:46:15;18.80;99.90
11532;DHT22;5822;51.000;5.874;2022-09-09T18:48:42;18.80;99.90
11532;DHT22;5822;51.000;5.874;2022-09-09T18:51:11;18.80;99.90
11532;DHT22;5822;51.000;5.874;2022-09-09T18:53:38;18.70;99.90
11532;DHT22;5822;51.000;5.874;2022-09-09T18:56:08;18.80;99.90
11532;DHT22;5822;51.000;5.874;2022-09-09T18:58:35;18.80;99.90
11532;DHT22;5822;51.000;5.874;2022-09-09T19:01:05;18.80;99.90
11532;DHT22;5822;51.000;5.874;2022-09-09T19:03:41;18.60;99.90
11532;DHT22;5822;51.000;5.874;2022-09-09T19:06:12;18.60;99.90
11532;DHT22;5822;51.000;5.874;2022-09-09T19:08:40;18.70;99.90
11532;DHT22;5822;51.000;5.874;2022-09-09T19:11:09;18.80;99.90
11532;DHT22;5822;51.000;5.874;2022-09-09T19:13:35;18.70;99.90
11532;DHT22;5822;51.000;5.874;2022-09-09T19:16:10;18.60;99.90
11532;DHT22;5822;51.000;5.874;2022-09-09T19:18:37;18.70;99.90
11532;DHT22;5822;51.000;5.874;2022-09-09T19:23:48;18.50;99.90
11532;DHT22;5822;51.000;5.874;2022-09-09T19:26:15;18.60;99.90
11532;DHT22;5822;51.000;5.874;2022-09-09T19:28:42;18.60;99.90
11532;DHT22;5822;51.000;5.874;2022-09-09T19:31:10;18.60;99.90
11532;DHT22;5822;51.000;5.874;2022-09-09T19:33:36;18.60;99.90
11532;DHT22;5822;51.000;5.874;2022-09-09T19:36:06;18.60;99.90
11532;DHT22;5822;51.000;5.874;2022-09-09T19:38:33;18.50;99.90
11532;DHT22;5822;51.000;5.874;2022-09-09T19:41:08;18.50;99.90
11532;DHT22;5822;51.000;5.874;2022-09-09T19:43:34;18.50;99.90
11532;DHT22;5822;51.000;5.874;2022-09-09T19:46:03;18.40;99.90
11532;DHT22;5822;51.000;5.874;2022-09-09T19:48:33;18.20;99.90
11532;DHT22;5822;51.000;5.874;2022-09-09T19:51:05;18.40;99.90
11532;DHT22;5822;51.000;5.874;2022-09-09T19:53:33;18.50;99.90
11532;DHT22;5822;51.000;5.874;2022-09-09T19:56:00;18.50;99.90
11532;DHT22;5822;51.000;5.874;2022-09-09T19:58:28;18.60;99.90
11532;DHT22;5822;51.000;5.874;2022-09-09T20:00:54;18.60;99.90
11532;DHT22;5822;51.000;5.874;2022-09-09T20:03:19;18.60;99.90
11532;DHT22;5822;51.000;5.874;2022-09-09T20:05:45;18.50;99.90
11532;DHT22;5822;51.000;5.874;2022-09-09T20:08:13;18.40;99.90
11532;DHT22;5822;51.000;5.874;2022-09-09T20:10:39;18.20;99.90
11532;DHT22;5822;51.000;5.874;2022-09-09T20:13:04;18.20;99.90
11532;DHT22;5822;51.000;5.874;2022-09-09T20:15:30;18.20;99.90
11532;DHT22;5822;51.000;5.874;2022-09-09T20:17:56;18.30;99.90
11532;DHT22;5822;51.000;5.874;2022-09-09T20:20:21;18.20;99.90
11532;DHT22;5822;51.000;5.874;2022-09-09T20:22:47;18.20;99.90
11532;DHT22;5822;51.000;5.874;2022-09-09T20:25:13;18.10;99.90
11532;DHT22;5822;51.000;5.874;2022-09-09T20:27:39;18.10;99.90
11532;DHT22;5822;51.000;5.874;2022-09-09T20:30:06;18.20;99.90
11532;DHT22;5822;51.000;5.874;2022-09-09T20:32:31;18.20;99.90
11532;DHT22;5822;51.000;5.874;2022-09-09T20:34:57;18.20;99.90
11532;DHT22;5822;51.000;5.874;2022-09-09T20:37:23;18.20;99.90
11532;DHT22;5822;51.000;5.874;2022-09-09T20:39:48;18.30;99.90
11532;DHT22;5822;51.000;5.874;2022-09-09T20:42:14;18.30;99.90
11532;DHT22;5822;51.000;5.874;2022-09-09T20:44:39;18.20;99.90
11532;DHT22;5822;51.000;5.874;2022-09-09T20:47:05;18.20;99.90
11532;DHT22;5822;51.000;5.874;2022-09-09T20:49:31;18.20;99.90
11532;DHT22;5822;51.000;5.874;2022-09-09T20:51:59;18.20;99.90
11532;DHT22;5822;51.000;5.874;2022-09-09T20:54:27;18.30;99.90
11532;DHT22;5822;51.000;5.874;2022-09-09T20:56:57;18.20;99.90
11532;DHT22;5822;51.000;5.874;2022-09-09T20:59:28;18.20;99.90
11532;DHT22;5822;51.000;5.874;2022-09-09T21:01:55;18.20;99.90
11532;DHT22;5822;51.000;5.874;2022-09-09T21:04:21;18.20;99.90
11532;DHT22;5822;51.000;5.874;2022-09-09T21:06:48;18.20;99.90
11532;DHT22;5822;51.000;5.874;2022-09-09T21:09:14;18.30;99.90
11532;DHT22;5822;51.000;5.874;2022-09-09T21:11:40;18.30;99.90
11532;DHT22;5822;51.000;5.874;2022-09-09T21:14:06;18.20;99.90
11532;DHT22;5822;51.000;5.874;2022-09-09T21:16:32;18.10;99.90
11532;DHT22;5822;51.000;5.874;2022-09-09T21:18:58;18.10;99.90
11532;DHT22;5822;51.000;5.874;2022-09-09T21:21:24;18.00;99.90
11532;DHT22;5822;51.000;5.874;2022-09-09T21:23:53;18.00;99.90
11532;DHT22;5822;51.000;5.874;2022-09-09T21:26:19;18.00;99.90
11532;DHT22;5822;51.000;5.874;2022-09-09T21:28:45;18.00;99.90
11532;DHT22;5822;51.000;5.874;2022-09-09T21:31:15;17.90;99.90
11532;DHT22;5822;51.000;5.874;2022-09-09T21:33:42;18.00;99.90
11532;DHT22;5822;51.000;5.874;2022-09-09T21:36:09;18.00;99.90
11532;DHT22;5822;51.000;5.874;2022-09-09T21:38:35;18.00;99.90
11532;DHT22;5822;51.000;5.874;2022-09-09T21:41:07;18.10;99.90
11532;DHT22;5822;51.000;5.874;2022-09-09T21:43:33;17.90;99.90
11532;DHT22;5822;51.000;5.874;2022-09-09T21:45:59;17.90;99.90
11532;DHT22;5822;51.000;5.874;2022-09-09T21:48:28;17.80;99.90
11532;DHT22;5822;51.000;5.874;2022-09-09T21:50:53;17.70;99.90
11532;DHT22;5822;51.000;5.874;2022-09-09T21:53:19;17.80;99.90
11532;DHT22;5822;51.000;5.874;2022-09-09T21:55:46;17.90;99.90
11532;DHT22;5822;51.000;5.874;2022-09-09T21:58:14;17.80;99.90
11532;DHT22;5822;51.000;5.874;2022-09-09T22:00:45;17.60;99.90
11532;DHT22;5822;51.000;5.874;2022-09-09T22:03:12;17.60;99.90
11532;DHT22;5822;51.000;5.874;2022-09-09T22:05:42;17.60;99.90
11532;DHT22;5822;51.000;5.874;2022-09-09T22:08:10;17.50;99.90
11532;DHT22;5822;51.000;5.874;2022-09-09T22:10:38;17.50;99.90
11532;DHT22;5822;51.000;5.874;2022-09-09T22:13:04;17.50;99.90
11532;DHT22;5822;51.000;5.874;2022-09-09T22:15:30;17.60;99.90
11532;DHT22;5822;51.000;5.874;2022-09-09T22:17:59;17.60;99.90
11532;DHT22;5822;51.000;5.874;2022-09-09T22:20:31;17.60;99.90
11532;DHT22;5822;51.000;5.874;2022-09-09T22:23:00;17.50;99.90
11532;DHT22;5822;51.000;5.874;2022-09-09T22:25:26;17.40;99.90
11532;DHT22;5822;51.000;5.874;2022-09-09T22:27:52;17.40;99.90
11532;DHT22;5822;51.000;5.874;2022-09-09T22:30:18;17.40;99.90
11532;DHT22;5822;51.000;5.874;2022-09-09T22:32:44;17.50;99.90
11532;DHT22;5822;51.000;5.874;2022-09-09T22:35:10;17.40;99.90
11532;DHT22;5822;51.000;5.874;2022-09-09T22:37:37;17.40;99.90
11532;DHT22;5822;51.000;5.874;2022-09-09T22:40:03;17.50;99.90
11532;DHT22;5822;51.000;5.874;2022-09-09T22:42:28;17.40;99.90
11532;DHT22;5822;51.000;5.874;2022-09-09T22:44:54;17.40;99.90
11532;DHT22;5822;51.000;5.874;2022-09-09T22:47:20;17.50;99.90
11532;DHT22;5822;51.000;5.874;2022-09-09T22:49:46;17.40;99.90
11532;DHT22;5822;51.000;5.874;2022-09-09T22:52:12;17.60;99.90
11532;DHT22;5822;51.000;5.874;2022-09-09T22:54:40;17.70;99.90
11532;DHT22;5822;51.000;5.874;2022-09-09T22:57:06;17.90;99.90
11532;DHT22;5822;51.000;5.874;2022-09-09T22:59:34;17.90;99.90
11532;DHT22;5822;51.000;5.874;2022-09-09T23:02:01;17.60;99.90
11532;DHT22;5822;51.000;5.874;2022-09-09T23:04:26;17.70;99.90
11532;DHT22;5822;51.000;5.874;2022-09-09T23:06:52;17.50;99.90
11532;DHT22;5822;51.000;5.874;2022-09-09T23:09:18;17.50;99.90
11532;DHT22;5822;51.000;5.874;2022-09-09T23:11:43;17.60;99.90
11532;DHT22;5822;51.000;5.874;2022-09-09T23:14:11;17.40;99.90
11532;DHT22;5822;51.000;5.874;2022-09-09T23:16:44;17.50;99.90
11532;DHT22;5822;51.000;5.874;2022-09-09T23:19:12;17.50;99.90
11532;DHT22;5822;51.000;5.874;2022-09-09T23:21:41;17.40;99.90
11532;DHT22;5822;51.000;5.874;2022-09-09T23:24:09;17.50;99.90
11532;DHT22;5822;51.000;5.874;2022-09-09T23:26:35;17.50;99.90
11532;DHT22;5822;51.000;5.874;2022-09-09T23:29:02;17.60;99.90
11532;DHT22;5822;51.000;5.874;2022-09-09T23:31:31;17.60;99.90
11532;DHT22;5822;51.000;5.874;2022-09-09T23:33:59;17.60;99.90
11532;DHT22;5822;51.000;5.874;2022-09-09T23:36:25;17.50;99.90
11532;DHT22;5822;51.000;5.874;2022-09-09T23:38:51;17.50;99.90
11532;DHT22;5822;51.000;5.874;2022-09-09T23:41:19;17.80;99.90
11532;DHT22;5822;51.000;5.874;2022-09-09T23:43:49;17.80;99.90
11532;DHT22;5822;51.000;5.874;2022-09-09T23:46:19;17.80;99.90
11532;DHT22;5822;51.000;5.874;2022-09-09T23:48:45;17.80;99.90
11532;DHT22;5822;51.000;5.874;2022-09-09T23:51:13;17.80;99.90
11532;DHT22;5822;51.000;5.874;2022-09-09T23:53:45;17.70;99.90
11532;DHT22;5822;51.000;5.874;2022-09-09T23:56:19;17.80;99.90
11532;DHT22;5822;51.000;5.874;2022-09-09T23:58:45;17.60;99.90
